createdAt,value
2017-07-22T00:01:28.668Z,21.82
2017-07-22T00:03:57.010Z,21.90
2017-07-22T00:06:25.969Z,21.91
2017-07-22T00:08:54.329Z,21.96
2017-07-22T00:11:23.446Z,22.04
2017-07-22T00:13:52.174Z,21.98
2017-07-22T00:16:20.570Z,21.86
2017-07-22T00:18:48.936Z,21.92
2017-07-22T00:21:17.684Z,21.78
2017-07-22T00:23:46.055Z,21.88
2017-07-22T00:26:14.419Z,22.04
2017-07-22T00:28:43.340Z,22.07
2017-07-22T00:31:11.704Z,22.10
2017-07-22T00:33:40.115Z,22.02
2017-07-22T00:36:09.169Z,22.13
2017-07-22T00:38:37.535Z,22.00
2017-07-22T00:41:06.695Z,22.20
2017-07-22T00:43:35.344Z,22.21
2017-07-22T00:46:03.683Z,22.27
2017-07-22T00:48:32.055Z,22.23
2017-07-22T00:51:00.672Z,22.02
2017-07-22T00:53:29.011Z,22.13
2017-07-22T00:55:57.346Z,22.03
2017-07-22T00:58:26.121Z,21.96
2017-07-22T01:00:54.479Z,22.08
2017-07-22T01:03:23.590Z,21.98
2017-07-22T01:05:52.431Z,22.01
2017-07-22T01:08:20.887Z,21.98
2017-07-22T01:10:49.239Z,21.92
2017-07-22T01:13:18.053Z,21.77
2017-07-22T01:15:46.854Z,21.69
2017-07-22T01:18:15.207Z,21.71
2017-07-22T01:20:44.108Z,21.74
2017-07-22T01:23:12.496Z,21.76
2017-07-22T01:25:40.880Z,21.63
2017-07-22T01:28:09.653Z,21.54
2017-07-22T01:30:37.981Z,21.59
2017-07-22T01:33:06.372Z,21.54
2017-07-22T01:35:35.775Z,21.36
2017-07-22T01:38:04.153Z,21.48
2017-07-22T01:40:32.485Z,21.46
2017-07-22T01:43:01.459Z,21.53
2017-07-22T01:45:29.803Z,21.45
2017-07-22T01:47:58.163Z,21.34
2017-07-22T01:50:26.915Z,21.26
2017-07-22T01:52:55.282Z,21.30
2017-07-22T01:55:23.626Z,21.30
2017-07-22T01:57:52.359Z,21.27
2017-07-22T02:00:20.732Z,21.34
2017-07-22T02:02:49.084Z,21.35
2017-07-22T02:05:18.056Z,21.10
2017-07-22T02:07:46.413Z,21.17
2017-07-22T02:10:14.767Z,21.26
2017-07-22T02:12:43.650Z,21.26
2017-07-22T02:15:12.022Z,21.29
2017-07-22T02:17:41.147Z,21.22
2017-07-22T02:20:09.804Z,21.22
2017-07-22T02:22:38.156Z,21.22
2017-07-22T02:25:06.542Z,21.22
2017-07-22T02:27:35.560Z,21.25
2017-07-22T02:30:03.936Z,21.32
2017-07-22T02:32:32.281Z,21.34
2017-07-22T02:35:00.898Z,21.25
2017-07-22T02:37:29.269Z,21.31
2017-07-22T02:39:57.621Z,21.24
2017-07-22T02:42:26.469Z,21.24
2017-07-22T02:44:54.820Z,21.34
2017-07-22T02:47:23.156Z,21.23
2017-07-22T02:49:51.903Z,21.30
2017-07-22T02:52:20.251Z,21.36
2017-07-22T02:54:48.590Z,21.31
2017-07-22T02:57:17.291Z,21.27
2017-07-22T02:59:46.468Z,21.23
2017-07-22T03:02:14.812Z,21.26
2017-07-22T03:04:43.455Z,21.29
2017-07-22T03:07:11.801Z,21.35
2017-07-22T03:09:40.156Z,21.23
2017-07-22T03:12:09.268Z,21.28
2017-07-22T03:14:37.632Z,21.27
2017-07-22T03:17:05.976Z,21.35
2017-07-22T03:19:34.609Z,21.30
2017-07-22T03:22:02.964Z,21.37
2017-07-22T03:24:31.315Z,21.21
2017-07-22T03:27:00.155Z,21.26
2017-07-22T03:29:28.529Z,21.29
2017-07-22T03:31:56.898Z,21.26
2017-07-22T03:34:25.990Z,21.25
2017-07-22T03:36:54.361Z,21.20
2017-07-22T03:39:23.522Z,21.31
2017-07-22T03:41:52.165Z,21.41
2017-07-22T03:44:20.521Z,21.35
2017-07-22T03:46:48.892Z,21.36
2017-07-22T03:49:17.536Z,21.53
2017-07-22T03:51:45.892Z,21.51
2017-07-22T03:54:14.236Z,21.52
2017-07-22T03:56:43.161Z,21.51
2017-07-22T03:59:11.500Z,21.57
2017-07-22T04:01:39.839Z,21.49
2017-07-22T04:04:08.499Z,21.49
2017-07-22T04:06:36.838Z,21.55
2017-07-22T04:09:05.203Z,21.44
2017-07-22T04:11:33.822Z,21.49
2017-07-22T04:14:02.196Z,21.52
2017-07-22T04:16:30.585Z,21.50
2017-07-22T04:18:59.682Z,21.72
2017-07-22T04:21:28.022Z,21.69
2017-07-22T04:23:56.366Z,21.45
2017-07-22T04:26:25.206Z,21.60
2017-07-22T04:28:53.566Z,21.70
2017-07-22T04:31:21.953Z,21.66
2017-07-22T04:33:50.594Z,21.59
2017-07-22T04:36:18.953Z,21.71
2017-07-22T04:38:48.131Z,21.74
2017-07-22T04:41:17.067Z,21.81
2017-07-22T04:43:45.411Z,22.06
2017-07-22T04:46:13.765Z,21.97
2017-07-22T04:48:42.423Z,21.85
2017-07-22T04:51:10.788Z,21.86
2017-07-22T04:53:39.135Z,21.85
2017-07-22T04:56:08.775Z,21.88
2017-07-22T04:58:37.122Z,21.88
2017-07-22T05:01:06.279Z,21.86
2017-07-22T05:03:36.043Z,21.96
2017-07-22T05:06:04.379Z,22.03
2017-07-22T05:08:32.719Z,22.17
2017-07-22T05:11:01.615Z,22.24
2017-07-22T05:13:30.006Z,22.16
2017-07-22T05:15:58.740Z,22.29
2017-07-22T05:18:27.353Z,22.39
2017-07-22T05:20:55.767Z,22.59
2017-07-22T05:23:24.112Z,22.76
2017-07-22T05:25:53.263Z,22.98
2017-07-22T05:28:21.604Z,23.05
2017-07-22T05:30:49.989Z,23.03
2017-07-22T05:33:18.880Z,23.24
2017-07-22T05:35:47.238Z,23.59
2017-07-22T05:38:15.614Z,22.44
2017-07-22T05:40:44.248Z,22.40
2017-07-22T05:43:12.633Z,22.33
2017-07-22T05:45:41.039Z,21.92
2017-07-22T05:48:10.208Z,21.88
2017-07-22T05:50:38.561Z,21.90
2017-07-22T05:53:06.908Z,21.68
2017-07-22T05:55:35.606Z,21.62
2017-07-22T05:58:04.011Z,22.05
2017-07-22T06:00:32.374Z,22.49
2017-07-22T06:03:01.096Z,22.56
2017-07-22T06:05:29.455Z,22.32
2017-07-22T06:07:57.818Z,22.38
2017-07-22T06:10:26.550Z,22.43
2017-07-22T06:12:54.918Z,22.17
2017-07-22T06:15:23.292Z,22.26
2017-07-22T06:17:52.159Z,21.86
2017-07-22T06:20:20.519Z,21.87
2017-07-22T06:22:49.623Z,22.44
2017-07-22T06:25:18.271Z,22.09
2017-07-22T06:27:46.627Z,22.14
2017-07-22T06:30:14.997Z,22.11
2017-07-22T06:32:43.684Z,22.29
2017-07-22T06:35:12.042Z,22.57
2017-07-22T06:37:40.393Z,22.75
2017-07-22T06:40:09.323Z,22.64
2017-07-22T06:42:37.666Z,22.47
2017-07-22T06:45:06.789Z,22.00
2017-07-22T06:47:35.461Z,22.18
2017-07-22T06:50:03.855Z,22.47
2017-07-22T06:52:32.211Z,22.35
2017-07-22T06:55:00.987Z,22.46
2017-07-22T06:57:29.417Z,22.40
2017-07-22T06:59:57.779Z,22.31
2017-07-22T07:02:27.602Z,22.45
2017-07-22T07:04:55.969Z,22.39
2017-07-22T07:07:24.358Z,22.28
2017-07-22T07:09:53.019Z,22.34
2017-07-22T07:12:21.364Z,22.49
2017-07-22T07:14:49.726Z,22.48
2017-07-22T07:17:18.445Z,22.44
2017-07-22T07:19:46.782Z,22.44
2017-07-22T07:22:15.122Z,22.42
2017-07-22T07:24:43.815Z,22.32
2017-07-22T07:27:12.181Z,21.80
2017-07-22T07:29:41.317Z,21.91
2017-07-22T07:32:10.076Z,22.01
2017-07-22T07:34:38.416Z,22.40
2017-07-22T07:37:06.756Z,22.58
2017-07-22T07:39:35.725Z,22.60
2017-07-22T07:42:04.095Z,22.62
2017-07-22T07:44:33.207Z,22.54
2017-07-22T07:47:01.912Z,22.69
2017-07-22T07:49:30.250Z,22.83
2017-07-22T07:51:58.595Z,23.17
2017-07-22T07:54:27.281Z,23.46
2017-07-22T07:56:55.651Z,23.73
2017-07-22T07:59:24.017Z,23.52
2017-07-22T08:01:52.849Z,23.48
2017-07-22T08:04:21.217Z,23.64
2017-07-22T08:06:49.580Z,23.11
2017-07-22T08:09:18.342Z,23.07
2017-07-22T08:11:46.704Z,23.35
2017-07-22T08:14:15.103Z,23.15
2017-07-22T08:16:44.381Z,22.95
2017-07-22T08:19:12.779Z,23.26
2017-07-22T08:21:41.913Z,23.21
2017-07-22T08:24:11.736Z,23.28
2017-07-22T08:26:40.091Z,22.97
2017-07-22T08:29:08.440Z,23.25
2017-07-22T08:31:37.357Z,23.07
2017-07-22T08:34:05.705Z,23.08
2017-07-22T08:36:34.812Z,23.47
2017-07-22T08:39:03.593Z,23.43
2017-07-22T08:41:31.940Z,23.57
2017-07-22T08:44:00.278Z,23.70
2017-07-22T08:46:29.273Z,23.80
2017-07-22T08:48:57.667Z,23.80
2017-07-22T08:51:26.036Z,23.61
2017-07-22T08:53:54.815Z,23.64
2017-07-22T08:56:23.183Z,23.48
2017-07-22T08:58:51.586Z,23.65
2017-07-22T09:01:20.197Z,23.84
2017-07-22T09:03:48.544Z,24.06
2017-07-22T09:06:16.891Z,24.30
2017-07-22T09:08:45.998Z,24.39
2017-07-22T09:11:14.366Z,24.57
2017-07-22T09:13:42.731Z,24.58
2017-07-22T09:16:11.406Z,24.21
2017-07-22T09:18:40.210Z,24.17
2017-07-22T09:21:09.331Z,24.07
2017-07-22T09:23:38.065Z,23.82
2017-07-22T09:26:06.422Z,23.80
2017-07-22T09:28:34.779Z,23.64
2017-07-22T09:31:03.510Z,23.62
2017-07-22T09:33:31.877Z,23.52
2017-07-22T09:36:00.244Z,23.37
2017-07-22T09:38:29.005Z,23.26
2017-07-22T09:40:57.351Z,23.09
2017-07-22T09:43:25.711Z,22.97
2017-07-22T09:45:54.461Z,22.72
2017-07-22T09:48:22.847Z,22.75
2017-07-22T09:50:51.218Z,22.56
2017-07-22T09:53:19.974Z,22.59
2017-07-22T09:55:48.350Z,22.40
2017-07-22T09:58:16.739Z,22.41
2017-07-22T10:00:45.351Z,22.65
2017-07-22T10:03:13.714Z,22.81
2017-07-22T10:05:42.090Z,22.99
2017-07-22T10:08:10.729Z,22.72
2017-07-22T10:10:39.100Z,22.58
2017-07-22T10:13:07.467Z,22.23
2017-07-22T10:15:36.430Z,22.35
2017-07-22T10:18:04.769Z,22.40
2017-07-22T10:20:33.324Z,22.28
2017-07-22T10:23:02.210Z,22.58
2017-07-22T10:25:30.576Z,22.47
2017-07-22T10:27:58.938Z,22.28
2017-07-22T10:30:27.936Z,21.81
2017-07-22T10:32:56.308Z,21.99
2017-07-22T10:35:24.726Z,22.43
2017-07-22T10:37:53.636Z,22.61
2017-07-22T10:40:22.002Z,23.01
2017-07-22T10:42:50.377Z,23.21
2017-07-22T10:45:19.163Z,23.30
2017-07-22T10:47:47.574Z,23.11
2017-07-22T10:50:15.997Z,23.08
2017-07-22T10:52:44.708Z,23.40
2017-07-22T10:55:13.044Z,23.57
2017-07-22T10:57:42.195Z,23.72
2017-07-22T11:00:10.888Z,23.96
2017-07-22T11:02:39.256Z,23.94
2017-07-22T11:05:07.600Z,23.71
2017-07-22T11:07:36.394Z,23.93
2017-07-22T11:10:04.763Z,23.84
2017-07-22T11:12:33.900Z,23.96
2017-07-22T11:15:02.532Z,23.70
2017-07-22T11:17:30.932Z,23.86
2017-07-22T11:19:59.311Z,24.07
2017-07-22T11:22:28.732Z,24.02
2017-07-22T11:24:57.074Z,24.03
2017-07-22T11:27:26.190Z,24.04
2017-07-22T11:29:54.990Z,24.24
2017-07-22T11:32:23.345Z,24.35
2017-07-22T11:34:51.720Z,24.15
2017-07-22T11:37:20.667Z,24.13
2017-07-22T11:39:49.056Z,24.02
2017-07-22T11:42:17.432Z,24.15
2017-07-22T11:44:46.510Z,24.14
2017-07-22T11:47:14.948Z,24.05
2017-07-22T11:49:43.319Z,24.13
2017-07-22T11:52:11.984Z,24.23
2017-07-22T11:54:40.366Z,24.48
2017-07-22T11:57:08.770Z,24.42
2017-07-22T11:59:37.449Z,24.84
2017-07-22T12:02:05.826Z,25.24
2017-07-22T12:04:34.222Z,25.33
2017-07-22T12:07:04.033Z,25.34
2017-07-22T12:09:32.390Z,25.33
2017-07-22T12:12:00.800Z,25.37
2017-07-22T12:14:29.651Z,25.41
2017-07-22T12:16:58.043Z,25.28
2017-07-22T12:19:26.425Z,25.02
2017-07-22T12:21:55.583Z,25.02
2017-07-22T12:24:24.010Z,25.25
2017-07-22T12:26:52.378Z,25.10
2017-07-22T12:29:22.046Z,25.27
2017-07-22T12:31:50.439Z,25.37
2017-07-22T12:34:18.789Z,25.87
2017-07-22T12:36:47.558Z,26.12
2017-07-22T12:39:16.723Z,26.57
2017-07-22T12:41:45.079Z,26.22
2017-07-22T12:44:13.755Z,26.17
2017-07-22T12:46:42.094Z,26.27
2017-07-22T12:49:10.473Z,25.66
2017-07-22T12:51:39.823Z,25.57
2017-07-22T12:54:08.171Z,25.85
2017-07-22T12:56:36.527Z,25.14
2017-07-22T12:59:05.442Z,24.99
2017-07-22T13:01:33.799Z,25.25
2017-07-22T13:04:02.140Z,25.16
2017-07-22T13:06:30.790Z,25.06
2017-07-22T13:08:59.148Z,24.76
2017-07-22T13:11:27.525Z,24.66
2017-07-22T13:13:57.035Z,23.99
2017-07-22T13:16:25.462Z,23.91
2017-07-22T13:18:53.856Z,24.02
2017-07-22T13:21:22.638Z,23.95
2017-07-22T13:23:51.135Z,22.93
2017-07-22T13:26:19.536Z,22.67
2017-07-22T13:28:48.279Z,22.57
2017-07-22T13:31:16.646Z,22.87
2017-07-22T13:33:45.036Z,23.03
2017-07-22T13:36:13.890Z,22.97
2017-07-22T13:38:42.294Z,22.69
2017-07-22T13:41:10.676Z,22.70
2017-07-22T13:43:39.328Z,22.88
2017-07-22T13:46:07.723Z,22.75
2017-07-22T13:48:36.110Z,22.79
2017-07-22T13:51:04.824Z,22.76
2017-07-22T13:53:33.205Z,22.87
2017-07-22T13:56:01.623Z,22.81
2017-07-22T13:58:30.625Z,22.66
2017-07-22T14:00:59.029Z,22.82
2017-07-22T14:03:27.404Z,23.11
2017-07-22T14:05:56.200Z,23.05
2017-07-22T14:08:24.564Z,23.25
2017-07-22T14:10:52.938Z,23.10
2017-07-22T14:13:22.400Z,22.88
2017-07-22T14:15:50.763Z,23.24
2017-07-22T14:18:19.103Z,23.22
2017-07-22T14:20:48.013Z,23.48
2017-07-22T14:23:16.418Z,23.81
2017-07-22T14:25:44.912Z,24.28
2017-07-22T14:28:13.547Z,24.19
2017-07-22T14:30:41.910Z,23.78
2017-07-22T14:33:10.272Z,23.99
2017-07-22T14:35:39.118Z,24.34
2017-07-22T14:38:07.496Z,24.63
2017-07-22T14:40:35.852Z,24.67
2017-07-22T14:43:04.918Z,24.61
2017-07-22T14:45:33.300Z,24.66
2017-07-22T14:48:01.678Z,24.53
2017-07-22T14:50:30.607Z,24.38
2017-07-22T14:52:59.000Z,23.67
2017-07-22T14:55:27.372Z,23.72
2017-07-22T14:57:56.295Z,24.19
2017-07-22T15:00:24.707Z,24.33
2017-07-22T15:02:53.086Z,24.66
2017-07-22T15:05:22.258Z,24.73
2017-07-22T15:07:50.645Z,25.08
2017-07-22T15:10:19.040Z,25.01
2017-07-22T15:12:47.974Z,24.64
2017-07-22T15:15:16.357Z,24.55
2017-07-22T15:17:44.736Z,24.45
2017-07-22T15:20:13.431Z,24.54
2017-07-22T15:22:41.799Z,24.72
2017-07-22T15:25:10.241Z,24.59
2017-07-22T15:27:40.124Z,24.72
2017-07-22T15:30:08.542Z,24.87
2017-07-22T15:32:36.927Z,24.97
2017-07-22T15:35:06.408Z,24.97
2017-07-22T15:37:34.793Z,24.74
2017-07-22T15:40:03.190Z,24.47
2017-07-22T15:42:32.034Z,24.65
2017-07-22T15:45:00.410Z,24.74
2017-07-22T15:47:28.811Z,24.83
2017-07-22T15:49:57.873Z,24.62
2017-07-22T15:52:26.306Z,24.52
2017-07-22T15:54:54.678Z,24.44
2017-07-22T15:57:24.384Z,24.37
2017-07-22T15:59:52.731Z,24.49
2017-07-22T16:02:21.069Z,24.33
2017-07-22T16:04:49.746Z,24.09
2017-07-22T16:07:18.128Z,24.01
2017-07-22T16:09:46.477Z,23.84
2017-07-22T16:12:15.446Z,23.90
2017-07-22T16:14:43.805Z,24.07
2017-07-22T16:17:12.158Z,24.15
2017-07-22T16:19:40.893Z,24.17
2017-07-22T16:22:09.251Z,24.15
2017-07-22T16:24:37.621Z,24.26
2017-07-22T16:27:06.392Z,24.02
2017-07-22T16:29:35.532Z,24.20
2017-07-22T16:32:03.934Z,23.92
2017-07-22T16:34:32.792Z,24.15
2017-07-22T16:37:01.156Z,23.93
2017-07-22T16:39:29.579Z,23.69
2017-07-22T16:41:58.423Z,23.81
2017-07-22T16:44:26.823Z,23.93
2017-07-22T16:46:55.186Z,23.63
2017-07-22T16:49:23.856Z,23.80
2017-07-22T16:51:52.226Z,23.97
2017-07-22T16:54:20.595Z,23.94
2017-07-22T16:56:49.729Z,24.03
2017-07-22T16:59:18.084Z,24.14
2017-07-22T17:01:47.265Z,24.23
2017-07-22T17:04:16.082Z,23.79
2017-07-22T17:06:45.203Z,23.78
2017-07-22T17:09:13.559Z,23.49
2017-07-22T17:11:42.233Z,23.69
2017-07-22T17:14:10.608Z,23.79
2017-07-22T17:16:39.753Z,24.14
2017-07-22T17:19:08.787Z,24.26
2017-07-22T17:21:37.146Z,24.34
2017-07-22T17:24:05.525Z,24.33
2017-07-22T17:26:34.407Z,24.50
2017-07-22T17:29:02.757Z,24.57
2017-07-22T17:31:31.112Z,24.56
2017-07-22T17:34:00.025Z,24.47
2017-07-22T17:36:28.385Z,24.44
2017-07-22T17:38:57.521Z,24.37
2017-07-22T17:41:26.307Z,24.26
2017-07-22T17:43:54.716Z,24.20
2017-07-22T17:46:23.110Z,24.22
2017-07-22T17:48:51.852Z,23.99
2017-07-22T17:51:20.232Z,23.97
2017-07-22T17:53:48.610Z,24.23
2017-07-22T17:56:17.394Z,24.37
2017-07-22T17:58:45.755Z,24.43
2017-07-22T18:01:14.897Z,24.47
2017-07-22T18:03:43.755Z,24.56
2017-07-22T18:06:12.127Z,24.63
2017-07-22T18:08:40.505Z,24.43
2017-07-22T18:11:09.765Z,24.45
2017-07-22T18:13:38.159Z,24.46
2017-07-22T18:16:06.559Z,24.35
2017-07-22T18:18:35.240Z,24.41
2017-07-22T18:21:04.394Z,24.40
2017-07-22T18:23:32.778Z,24.51
2017-07-22T18:26:01.838Z,24.53
2017-07-22T18:28:30.206Z,24.62
2017-07-22T18:30:59.365Z,24.42
2017-07-22T18:33:28.114Z,24.29
2017-07-22T18:35:56.474Z,24.29
2017-07-22T18:38:24.822Z,24.22
2017-07-22T18:40:53.488Z,24.22
2017-07-22T18:43:21.847Z,24.14
2017-07-22T18:45:50.212Z,24.00
2017-07-22T18:48:18.982Z,24.07
2017-07-22T18:50:47.363Z,24.04
2017-07-22T18:53:15.732Z,23.90
2017-07-22T18:55:44.357Z,23.79
2017-07-22T18:58:12.727Z,23.72
2017-07-22T19:00:41.081Z,23.62
2017-07-22T19:03:09.885Z,23.53
2017-07-22T19:05:38.275Z,23.54
2017-07-22T19:08:06.625Z,23.68
2017-07-22T19:10:35.770Z,23.70
2017-07-22T19:13:04.156Z,23.64
2017-07-22T19:15:32.956Z,23.32
2017-07-22T19:18:01.808Z,23.40
2017-07-22T19:20:30.200Z,23.32
2017-07-22T19:22:58.550Z,23.24
2017-07-22T19:25:27.454Z,23.17
2017-07-22T19:27:55.812Z,23.27
2017-07-22T19:30:24.960Z,23.28
2017-07-22T19:32:53.999Z,23.26
2017-07-22T19:35:23.119Z,23.36
2017-07-22T19:37:51.475Z,23.40
2017-07-22T19:40:20.108Z,23.27
2017-07-22T19:42:48.488Z,23.31
2017-07-22T19:45:16.911Z,23.10
2017-07-22T19:47:45.648Z,23.03
2017-07-22T19:50:14.015Z,22.88
2017-07-22T19:52:42.429Z,22.93
2017-07-22T19:55:11.691Z,22.91
2017-07-22T19:57:40.055Z,22.80
2017-07-22T20:00:09.195Z,22.88
2017-07-22T20:02:37.966Z,22.88
2017-07-22T20:05:06.344Z,22.78
2017-07-22T20:07:34.724Z,22.95
2017-07-22T20:10:03.603Z,22.84
2017-07-22T20:12:31.969Z,22.91
2017-07-22T20:15:01.077Z,22.91
2017-07-22T20:17:29.932Z,22.91
2017-07-22T20:19:59.086Z,22.75
2017-07-22T20:22:27.507Z,22.49
2017-07-22T20:24:56.158Z,22.37
2017-07-22T20:27:25.036Z,22.32
2017-07-22T20:29:53.409Z,22.33
2017-07-22T20:32:22.392Z,22.30
2017-07-22T20:34:50.734Z,22.30
2017-07-22T20:37:19.117Z,22.17
2017-07-22T20:39:48.070Z,22.02
2017-07-22T20:42:16.409Z,21.99
2017-07-22T20:44:44.789Z,22.08
2017-07-22T20:47:13.437Z,22.28
2017-07-22T20:49:41.822Z,22.42
2017-07-22T20:52:10.195Z,22.53
2017-07-22T20:54:39.087Z,22.60
2017-07-22T20:57:07.464Z,22.60
2017-07-22T20:59:35.844Z,22.68
2017-07-22T21:02:04.748Z,22.60
2017-07-22T21:04:33.113Z,22.43
2017-07-22T21:07:01.453Z,22.51
2017-07-22T21:09:30.245Z,22.61
2017-07-22T21:11:58.615Z,22.66
2017-07-22T21:14:26.984Z,22.73
2017-07-22T21:16:55.689Z,22.67
2017-07-22T21:19:24.098Z,22.55
2017-07-22T21:21:52.478Z,22.39
2017-07-22T21:24:21.751Z,22.28
2017-07-22T21:26:50.107Z,22.06
2017-07-22T21:29:18.617Z,21.77
2017-07-22T21:31:47.325Z,21.91
2017-07-22T21:34:15.682Z,22.05
2017-07-22T21:36:44.024Z,22.07
2017-07-22T21:39:13.507Z,22.19
2017-07-22T21:41:41.882Z,22.27
2017-07-22T21:44:10.260Z,22.24
2017-07-22T21:46:39.281Z,22.21
2017-07-22T21:49:07.660Z,22.25
2017-07-22T21:51:36.028Z,22.13
2017-07-22T21:54:04.732Z,22.19
2017-07-22T21:56:33.136Z,22.08
2017-07-22T21:59:01.590Z,22.03
2017-07-22T22:01:30.309Z,22.11
2017-07-22T22:03:58.720Z,21.97
2017-07-22T22:06:27.102Z,22.06
2017-07-22T22:08:55.907Z,21.93
2017-07-22T22:11:24.285Z,22.06
2017-07-22T22:13:52.675Z,21.92
2017-07-22T22:16:21.500Z,21.78
2017-07-22T22:18:49.857Z,21.86
2017-07-22T22:21:18.254Z,22.02
2017-07-22T22:23:46.871Z,21.99
2017-07-22T22:26:15.230Z,21.95
2017-07-22T22:28:43.636Z,22.03
2017-07-22T22:31:12.826Z,21.99
2017-07-22T22:33:41.204Z,22.05
2017-07-22T22:36:09.578Z,21.99
2017-07-22T22:38:38.281Z,22.00
2017-07-22T22:41:06.700Z,21.87
2017-07-22T22:43:35.090Z,21.74
2017-07-22T22:46:03.994Z,21.65
2017-07-22T22:48:32.349Z,21.70
2017-07-22T22:51:00.778Z,21.78
2017-07-22T22:53:29.537Z,21.79
2017-07-22T22:55:57.919Z,21.78
2017-07-22T22:58:26.297Z,21.84
2017-07-22T23:00:55.240Z,21.90
2017-07-22T23:03:23.602Z,21.90
2017-07-22T23:05:51.951Z,21.94
2017-07-22T23:08:20.631Z,21.96
2017-07-22T23:10:49.000Z,21.89
2017-07-22T23:13:17.332Z,21.88
2017-07-22T23:15:46.064Z,21.95
2017-07-22T23:18:14.425Z,21.92
2017-07-22T23:20:43.578Z,21.74
2017-07-22T23:23:12.337Z,21.70
2017-07-22T23:25:40.716Z,21.86
2017-07-22T23:28:09.094Z,21.89
2017-07-22T23:30:37.769Z,21.85
2017-07-22T23:33:06.153Z,21.78
2017-07-22T23:35:35.278Z,21.78
2017-07-22T23:38:04.066Z,21.74
2017-07-22T23:40:32.458Z,21.75
2017-07-22T23:43:00.842Z,21.65
2017-07-22T23:45:29.529Z,21.64
2017-07-22T23:47:57.899Z,21.71
2017-07-22T23:50:26.243Z,21.73
2017-07-22T23:52:54.972Z,21.66
2017-07-22T23:55:23.343Z,21.64
2017-07-22T23:57:51.717Z,21.54
